sensor_id;sensor_type;location;lat;lon;timestamp;pressure;altitude;pressure_sealevel;temperature;humidity
61345;BME280;47216;42.656;23.232;2023-04-05T00:02:22;93387.78;;;2.43;67.79
61345;BME280;47216;42.656;23.232;2023-04-05T00:04:54;93392.63;;;2.26;67.70
61345;BME280;47216;42.656;23.232;2023-04-05T00:07:22;93385.94;;;2.18;67.83
61345;BME280;47216;42.656;23.232;2023-04-05T00:09:52;93387.31;;;2.21;68.13
61345;BME280;47216;42.656;23.232;2023-04-05T00:12:19;93389.88;;;2.21;68.36
61345;BME280;47216;42.656;23.232;2023-04-05T00:14:46;93388.59;;;2.05;68.29
61345;BME280;47216;42.656;23.232;2023-04-05T00:17:12;93388.47;;;1.86;67.93
61345;BME280;47216;42.656;23.232;2023-04-05T00:19:39;93391.91;;;1.74;69.08
61345;BME280;47216;42.656;23.232;2023-04-05T00:22:07;93385.16;;;1.73;69.18
61345;BME280;47216;42.656;23.232;2023-04-05T00:24:35;93388.91;;;1.83;69.10
61345;BME280;47216;42.656;23.232;2023-04-05T00:27:07;93388.84;;;1.97;69.43
61345;BME280;47216;42.656;23.232;2023-04-05T00:29:34;93392.78;;;1.99;68.88
61345;BME280;47216;42.656;23.232;2023-04-05T00:32:01;93397.69;;;2.01;69.10
61345;BME280;47216;42.656;23.232;2023-04-05T00:34:28;93396.69;;;2.08;69.15
61345;BME280;47216;42.656;23.232;2023-04-05T00:36:57;93398.59;;;2.20;68.14
61345;BME280;47216;42.656;23.232;2023-04-05T00:39:23;93400.59;;;2.18;67.52
61345;BME280;47216;42.656;23.232;2023-04-05T00:41:50;93396.59;;;2.22;68.37
61345;BME280;47216;42.656;23.232;2023-04-05T00:44:18;93399.09;;;2.35;67.35
61345;BME280;47216;42.656;23.232;2023-04-05T00:46:45;93398.19;;;2.23;67.66
61345;BME280;47216;42.656;23.232;2023-04-05T00:49:12;93389.47;;;2.24;67.72
61345;BME280;47216;42.656;23.232;2023-04-05T00:51:39;93393.41;;;2.26;68.29
61345;BME280;47216;42.656;23.232;2023-04-05T00:54:06;93394.38;;;2.32;68.55
61345;BME280;47216;42.656;23.232;2023-04-05T00:56:33;93402.66;;;2.34;68.03
61345;BME280;47216;42.656;23.232;2023-04-05T00:59:01;93401.50;;;2.30;67.74
61345;BME280;47216;42.656;23.232;2023-04-05T01:01:30;93403.25;;;2.36;67.71
61345;BME280;47216;42.656;23.232;2023-04-05T01:04:00;93398.50;;;2.33;67.90
61345;BME280;47216;42.656;23.232;2023-04-05T01:06:42;93407.56;;;2.42;67.28
61345;BME280;47216;42.656;23.232;2023-04-05T01:09:17;93402.53;;;2.22;67.81
61345;BME280;47216;42.656;23.232;2023-04-05T01:11:48;93402.97;;;2.13;68.22
61345;BME280;47216;42.656;23.232;2023-04-05T01:14:15;93399.41;;;2.14;67.88
61345;BME280;47216;42.656;23.232;2023-04-05T01:16:43;93405.81;;;1.98;68.63
61345;BME280;47216;42.656;23.232;2023-04-05T01:19:09;93403.44;;;2.03;68.67
61345;BME280;47216;42.656;23.232;2023-04-05T01:21:54;93409.00;;;1.93;68.70
61345;BME280;47216;42.656;23.232;2023-04-05T01:24:48;93404.47;;;1.95;68.98
61345;BME280;47216;42.656;23.232;2023-04-05T01:27:21;93408.78;;;2.01;68.95
61345;BME280;47216;42.656;23.232;2023-04-05T01:30:01;93411.38;;;2.01;69.11
61345;BME280;47216;42.656;23.232;2023-04-05T01:32:45;93410.59;;;1.94;68.85
61345;BME280;47216;42.656;23.232;2023-04-05T01:35:17;93412.16;;;1.95;69.25
61345;BME280;47216;42.656;23.232;2023-04-05T01:37:50;93408.56;;;2.03;69.09
61345;BME280;47216;42.656;23.232;2023-04-05T01:40:18;93411.28;;;2.15;68.99
61345;BME280;47216;42.656;23.232;2023-04-05T01:42:46;93410.78;;;2.31;68.13
61345;BME280;47216;42.656;23.232;2023-04-05T01:45:14;93416.19;;;2.23;68.23
61345;BME280;47216;42.656;23.232;2023-04-05T01:47:41;93410.84;;;2.24;67.97
61345;BME280;47216;42.656;23.232;2023-04-05T01:50:08;93414.53;;;1.97;68.00
61345;BME280;47216;42.656;23.232;2023-04-05T01:52:35;93416.00;;;1.79;68.67
61345;BME280;47216;42.656;23.232;2023-04-05T01:55:02;93409.88;;;1.80;68.89
61345;BME280;47216;42.656;23.232;2023-04-05T01:57:28;93403.91;;;1.80;69.21
61345;BME280;47216;42.656;23.232;2023-04-05T01:59:55;93408.25;;;1.86;69.06
61345;BME280;47216;42.656;23.232;2023-04-05T02:02:23;93409.81;;;1.87;69.28
61345;BME280;47216;42.656;23.232;2023-04-05T02:04:50;93406.69;;;1.85;68.69
61345;BME280;47216;42.656;23.232;2023-04-05T02:07:17;93410.66;;;1.81;68.70
61345;BME280;47216;42.656;23.232;2023-04-05T02:09:44;93419.00;;;1.70;68.82
61345;BME280;47216;42.656;23.232;2023-04-05T02:12:11;93411.16;;;1.51;69.29
61345;BME280;47216;42.656;23.232;2023-04-05T02:14:37;93403.88;;;1.41;69.89
61345;BME280;47216;42.656;23.232;2023-04-05T02:17:04;93421.63;;;1.50;70.31
61345;BME280;47216;42.656;23.232;2023-04-05T02:19:33;93422.66;;;1.29;69.93
61345;BME280;47216;42.656;23.232;2023-04-05T02:22:05;93418.13;;;1.24;70.00
61345;BME280;47216;42.656;23.232;2023-04-05T02:24:32;93415.38;;;1.25;70.28
61345;BME280;47216;42.656;23.232;2023-04-05T02:26:59;93416.31;;;1.31;70.46
61345;BME280;47216;42.656;23.232;2023-04-05T02:29:26;93411.00;;;1.39;70.15
61345;BME280;47216;42.656;23.232;2023-04-05T02:31:53;93410.16;;;1.45;69.54
61345;BME280;47216;42.656;23.232;2023-04-05T02:34:20;93422.63;;;1.42;69.76
61345;BME280;47216;42.656;23.232;2023-04-05T02:36:50;93419.50;;;1.33;69.59
61345;BME280;47216;42.656;23.232;2023-04-05T02:39:17;93409.03;;;1.28;69.79
61345;BME280;47216;42.656;23.232;2023-04-05T02:41:44;93419.13;;;1.30;69.83
61345;BME280;47216;42.656;23.232;2023-04-05T02:44:11;93416.53;;;1.30;70.06
61345;BME280;47216;42.656;23.232;2023-04-05T02:46:38;93412.78;;;1.25;70.23
61345;BME280;47216;42.656;23.232;2023-04-05T02:49:05;93410.22;;;1.25;70.18
61345;BME280;47216;42.656;23.232;2023-04-05T02:51:32;93413.41;;;1.21;70.70
61345;BME280;47216;42.656;23.232;2023-04-05T02:54:02;93407.47;;;1.20;70.75
61345;BME280;47216;42.656;23.232;2023-04-05T02:56:28;93408.44;;;1.19;70.53
61345;BME280;47216;42.656;23.232;2023-04-05T02:58:55;93410.44;;;1.17;70.67
61345;BME280;47216;42.656;23.232;2023-04-05T03:01:22;93415.56;;;1.24;70.61
61345;BME280;47216;42.656;23.232;2023-04-05T03:03:49;93406.88;;;1.25;70.30
61345;BME280;47216;42.656;23.232;2023-04-05T03:06:16;93414.00;;;1.16;70.39
61345;BME280;47216;42.656;23.232;2023-04-05T03:08:42;93407.84;;;1.24;70.19
61345;BME280;47216;42.656;23.232;2023-04-05T03:11:12;93411.19;;;1.24;70.20
61345;BME280;47216;42.656;23.232;2023-04-05T03:13:39;93402.72;;;1.24;70.21
61345;BME280;47216;42.656;23.232;2023-04-05T03:16:06;93402.28;;;1.34;70.25
61345;BME280;47216;42.656;23.232;2023-04-05T03:18:33;93403.28;;;1.33;70.40
61345;BME280;47216;42.656;23.232;2023-04-05T03:21:00;93407.63;;;1.39;70.48
61345;BME280;47216;42.656;23.232;2023-04-05T03:23:30;93405.63;;;1.41;69.92
61345;BME280;47216;42.656;23.232;2023-04-05T03:25:58;93407.63;;;1.39;69.79
61345;BME280;47216;42.656;23.232;2023-04-05T03:28:27;93397.38;;;1.39;70.05
61345;BME280;47216;42.656;23.232;2023-04-05T03:30:54;93404.25;;;1.32;70.02
61345;BME280;47216;42.656;23.232;2023-04-05T03:33:21;93411.78;;;1.26;69.99
61345;BME280;47216;42.656;23.232;2023-04-05T03:35:47;93410.03;;;1.20;70.68
61345;BME280;47216;42.656;23.232;2023-04-05T03:38:14;93403.91;;;1.21;71.44
61345;BME280;47216;42.656;23.232;2023-04-05T03:40:41;93407.66;;;1.19;71.35
61345;BME280;47216;42.656;23.232;2023-04-05T03:43:08;93411.63;;;1.08;72.42
61345;BME280;47216;42.656;23.232;2023-04-05T03:45:37;93406.47;;;1.15;73.04
61345;BME280;47216;42.656;23.232;2023-04-05T03:48:04;93417.94;;;1.12;73.10
61345;BME280;47216;42.656;23.232;2023-04-05T03:50:31;93420.69;;;1.17;73.67
61345;BME280;47216;42.656;23.232;2023-04-05T03:52:57;93411.63;;;1.21;73.94
61345;BME280;47216;42.656;23.232;2023-04-05T03:55:24;93421.09;;;1.21;73.81
61345;BME280;47216;42.656;23.232;2023-04-05T03:57:51;93419.13;;;1.23;73.83
61345;BME280;47216;42.656;23.232;2023-04-05T04:00:19;93417.34;;;1.17;74.12
61345;BME280;47216;42.656;23.232;2023-04-05T04:02:50;93431.38;;;1.08;74.02
61345;BME280;47216;42.656;23.232;2023-04-05T04:05:18;93422.28;;;1.12;74.83
61345;BME280;47216;42.656;23.232;2023-04-05T04:07:46;93420.09;;;1.22;74.42
61345;BME280;47216;42.656;23.232;2023-04-05T04:10:15;93429.78;;;1.13;73.69
61345;BME280;47216;42.656;23.232;2023-04-05T04:12:42;93426.66;;;0.98;74.08
61345;BME280;47216;42.656;23.232;2023-04-05T04:15:10;93425.28;;;1.02;74.34
61345;BME280;47216;42.656;23.232;2023-04-05T04:17:37;93430.59;;;1.00;73.36
61345;BME280;47216;42.656;23.232;2023-04-05T04:20:07;93430.78;;;1.05;73.29
61345;BME280;47216;42.656;23.232;2023-04-05T04:22:36;93429.41;;;1.03;73.08
61345;BME280;47216;42.656;23.232;2023-04-05T04:25:05;93429.41;;;1.03;72.86
61345;BME280;47216;42.656;23.232;2023-04-05T04:27:34;93433.75;;;1.02;73.62
61345;BME280;47216;42.656;23.232;2023-04-05T04:30:01;93437.09;;;1.03;73.54
61345;BME280;47216;42.656;23.232;2023-04-05T04:32:29;93445.19;;;1.13;73.10
61345;BME280;47216;42.656;23.232;2023-04-05T04:35:11;93447.19;;;1.11;72.87
61345;BME280;47216;42.656;23.232;2023-04-05T04:37:38;93445.22;;;1.07;71.61
61345;BME280;47216;42.656;23.232;2023-04-05T04:40:12;93445.41;;;1.18;71.51
61345;BME280;47216;42.656;23.232;2023-04-05T04:42:42;93450.31;;;1.26;72.45
61345;BME280;47216;42.656;23.232;2023-04-05T04:45:11;93449.94;;;1.16;70.38
61345;BME280;47216;42.656;23.232;2023-04-05T04:47:41;93451.09;;;1.27;70.38
61345;BME280;47216;42.656;23.232;2023-04-05T04:50:08;93451.66;;;1.42;70.09
61345;BME280;47216;42.656;23.232;2023-04-05T04:52:38;93457.22;;;1.39;69.59
61345;BME280;47216;42.656;23.232;2023-04-05T04:55:06;93458.59;;;1.42;68.74
61345;BME280;47216;42.656;23.232;2023-04-05T04:57:33;93450.28;;;1.40;69.49
61345;BME280;47216;42.656;23.232;2023-04-05T05:00:00;93447.16;;;1.31;69.86
61345;BME280;47216;42.656;23.232;2023-04-05T05:02:30;93450.91;;;1.29;70.05
61345;BME280;47216;42.656;23.232;2023-04-05T05:04:57;93451.06;;;1.40;69.74
61345;BME280;47216;42.656;23.232;2023-04-05T05:07:23;93449.09;;;1.56;69.50
61345;BME280;47216;42.656;23.232;2023-04-05T05:09:52;93447.47;;;1.61;69.54
61345;BME280;47216;42.656;23.232;2023-04-05T05:12:20;93451.03;;;1.60;69.67
61345;BME280;47216;42.656;23.232;2023-04-05T05:14:47;93460.16;;;1.43;69.26
61345;BME280;47216;42.656;23.232;2023-04-05T05:17:14;93457.41;;;1.38;69.85
61345;BME280;47216;42.656;23.232;2023-04-05T05:19:41;93457.00;;;1.41;69.78
61345;BME280;47216;42.656;23.232;2023-04-05T05:22:08;93444.38;;;1.46;69.52
61345;BME280;47216;42.656;23.232;2023-04-05T05:24:34;93459.38;;;1.49;69.81
61345;BME280;47216;42.656;23.232;2023-04-05T05:27:03;93457.41;;;1.38;70.03
61345;BME280;47216;42.656;23.232;2023-04-05T05:29:30;93462.13;;;1.41;69.56
61345;BME280;47216;42.656;23.232;2023-04-05T05:31:57;93462.72;;;1.43;69.12
61345;BME280;47216;42.656;23.232;2023-04-05T05:34:23;93455.00;;;1.50;69.42
61345;BME280;47216;42.656;23.232;2023-04-05T05:36:50;93458.59;;;1.42;68.56
61345;BME280;47216;42.656;23.232;2023-04-05T05:39:17;93455.84;;;1.37;68.54
61345;BME280;47216;42.656;23.232;2023-04-05T05:41:45;93463.31;;;1.45;68.42
61345;BME280;47216;42.656;23.232;2023-04-05T05:44:13;93457.81;;;1.41;67.78
61345;BME280;47216;42.656;23.232;2023-04-05T05:46:40;93457.00;;;1.41;68.41
61345;BME280;47216;42.656;23.232;2023-04-05T05:49:06;93457.41;;;1.44;67.38
61345;BME280;47216;42.656;23.232;2023-04-05T05:51:33;93456.03;;;1.42;66.72
61345;BME280;47216;42.656;23.232;2023-04-05T05:54:00;93456.22;;;1.47;67.12
61345;BME280;47216;42.656;23.232;2023-04-05T05:56:27;93460.56;;;1.46;66.88
61345;BME280;47216;42.656;23.232;2023-04-05T05:58:53;93462.72;;;1.43;67.25
61345;BME280;47216;42.656;23.232;2023-04-05T06:01:22;93455.25;;;1.48;67.07
61345;BME280;47216;42.656;23.232;2023-04-05T06:03:52;93459.78;;;1.46;66.38
61345;BME280;47216;42.656;23.232;2023-04-05T06:06:19;93452.63;;;1.55;66.79
61345;BME280;47216;42.656;23.232;2023-04-05T06:08:46;93460.31;;;1.61;66.82
61345;BME280;47216;42.656;23.232;2023-04-05T06:11:17;93469.63;;;1.62;66.50
61345;BME280;47216;42.656;23.232;2023-04-05T06:13:44;93464.88;;;1.59;66.38
61345;BME280;47216;42.656;23.232;2023-04-05T06:16:11;93466.03;;;1.70;65.78
61345;BME280;47216;42.656;23.232;2023-04-05T06:18:40;93465.44;;;1.75;66.67
61345;BME280;47216;42.656;23.232;2023-04-05T06:21:07;93462.66;;;1.83;66.77
61345;BME280;47216;42.656;23.232;2023-04-05T06:23:33;93471.09;;;2.03;66.35
61345;BME280;47216;42.656;23.232;2023-04-05T06:26:01;93470.34;;;1.89;66.13
61345;BME280;47216;42.656;23.232;2023-04-05T06:28:28;93464.38;;;1.89;65.44
61345;BME280;47216;42.656;23.232;2023-04-05T06:30:56;93466.97;;;1.89;65.81
61345;BME280;47216;42.656;23.232;2023-04-05T06:33:23;93471.13;;;1.90;64.51
61345;BME280;47216;42.656;23.232;2023-04-05T06:35:51;93466.75;;;1.97;65.21
61345;BME280;47216;42.656;23.232;2023-04-05T06:38:18;93474.47;;;1.97;64.89
61345;BME280;47216;42.656;23.232;2023-04-05T06:40:45;93484.16;;;1.95;64.14
61345;BME280;47216;42.656;23.232;2023-04-05T06:43:12;93481.00;;;1.93;64.34
61345;BME280;47216;42.656;23.232;2023-04-05T06:45:38;93487.31;;;1.97;65.00
61345;BME280;47216;42.656;23.232;2023-04-05T06:48:07;93486.91;;;2.00;64.34
61345;BME280;47216;42.656;23.232;2023-04-05T06:50:33;93488.28;;;1.96;64.38
61345;BME280;47216;42.656;23.232;2023-04-05T06:53:02;93488.06;;;2.04;64.12
61345;BME280;47216;42.656;23.232;2023-04-05T06:55:29;93495.59;;;2.06;64.10
61345;BME280;47216;42.656;23.232;2023-04-05T06:57:55;93499.13;;;2.12;63.61
61345;BME280;47216;42.656;23.232;2023-04-05T07:00:22;93497.91;;;2.21;64.33
61345;BME280;47216;42.656;23.232;2023-04-05T07:02:49;93508.38;;;2.26;64.11
61345;BME280;47216;42.656;23.232;2023-04-05T07:05:16;93504.19;;;2.38;63.72
61345;BME280;47216;42.656;23.232;2023-04-05T07:07:43;93508.09;;;2.47;64.03
61345;BME280;47216;42.656;23.232;2023-04-05T07:10:14;93514.34;;;2.58;63.58
61345;BME280;47216;42.656;23.232;2023-04-05T07:12:41;93516.53;;;2.61;62.64
61345;BME280;47216;42.656;23.232;2023-04-05T07:15:09;93511.53;;;2.66;62.48
61345;BME280;47216;42.656;23.232;2023-04-05T07:17:36;93518.19;;;2.81;61.99
61345;BME280;47216;42.656;23.232;2023-04-05T07:20:03;93510.59;;;2.92;61.50
61345;BME280;47216;42.656;23.232;2023-04-05T07:22:32;93521.38;;;2.76;61.68
61345;BME280;47216;42.656;23.232;2023-04-05T07:24:59;93527.44;;;2.57;61.36
61345;BME280;47216;42.656;23.232;2023-04-05T07:27:28;93526.81;;;2.61;62.79
61345;BME280;47216;42.656;23.232;2023-04-05T07:29:55;93521.63;;;2.68;62.47
61345;BME280;47216;42.656;23.232;2023-04-05T07:32:22;93534.50;;;2.68;61.57
61345;BME280;47216;42.656;23.232;2023-04-05T07:34:49;93538.13;;;2.53;62.72
61345;BME280;47216;42.656;23.232;2023-04-05T07:37:16;93533.72;;;2.61;62.56
61345;BME280;47216;42.656;23.232;2023-04-05T07:39:43;93533.72;;;2.61;62.59
61345;BME280;47216;42.656;23.232;2023-04-05T07:42:10;93535.16;;;2.57;63.31
61345;BME280;47216;42.656;23.232;2023-04-05T07:44:38;93536.56;;;2.52;62.89
61345;BME280;47216;42.656;23.232;2023-04-05T07:47:05;93540.88;;;2.59;63.70
61345;BME280;47216;42.656;23.232;2023-04-05T07:49:32;93532.00;;;2.55;62.90
61345;BME280;47216;42.656;23.232;2023-04-05T07:51:59;93552.00;;;2.52;63.67
61345;BME280;47216;42.656;23.232;2023-04-05T07:54:26;93546.91;;;2.39;62.86
61345;BME280;47216;42.656;23.232;2023-04-05T07:56:52;93543.31;;;2.40;63.59
61345;BME280;47216;42.656;23.232;2023-04-05T07:59:22;93546.72;;;2.41;63.74
61345;BME280;47216;42.656;23.232;2023-04-05T08:01:50;93559.94;;;2.44;63.86
61345;BME280;47216;42.656;23.232;2023-04-05T08:04:17;93557.50;;;2.56;63.19
61345;BME280;47216;42.656;23.232;2023-04-05T08:06:46;93558.94;;;2.52;62.89
61345;BME280;47216;42.656;23.232;2023-04-05T08:09:13;93560.94;;;2.43;63.18
61345;BME280;47216;42.656;23.232;2023-04-05T08:11:39;93563.69;;;2.48;63.89
61345;BME280;47216;42.656;23.232;2023-04-05T08:14:06;93570.03;;;2.46;62.82
61345;BME280;47216;42.656;23.232;2023-04-05T08:16:33;93566.47;;;2.40;63.50
61345;BME280;47216;42.656;23.232;2023-04-05T08:19:01;93575.78;;;2.41;63.15
61345;BME280;47216;42.656;23.232;2023-04-05T08:21:28;93578.19;;;2.36;63.68
61345;BME280;47216;42.656;23.232;2023-04-05T08:23:55;93571.44;;;2.35;63.20
61345;BME280;47216;42.656;23.232;2023-04-05T08:26:22;93565.13;;;2.31;63.48
61345;BME280;47216;42.656;23.232;2023-04-05T08:28:49;93580.00;;;2.29;63.41
61345;BME280;47216;42.656;23.232;2023-04-05T08:31:16;93577.63;;;2.21;63.20
61345;BME280;47216;42.656;23.232;2023-04-05T08:33:43;93573.50;;;2.13;64.50
61345;BME280;47216;42.656;23.232;2023-04-05T08:36:11;93577.81;;;2.26;64.60
61345;BME280;47216;42.656;23.232;2023-04-05T08:38:38;93580.94;;;2.41;64.57
61345;BME280;47216;42.656;23.232;2023-04-05T08:41:13;93582.97;;;2.26;64.04
61345;BME280;47216;42.656;23.232;2023-04-05T08:43:54;93578.25;;;2.16;64.03
61345;BME280;47216;42.656;23.232;2023-04-05T08:46:22;93581.25;;;2.06;64.83
61345;BME280;47216;42.656;23.232;2023-04-05T08:48:49;93574.72;;;1.97;64.44
61345;BME280;47216;42.656;23.232;2023-04-05T08:51:19;93581.84;;;2.08;64.95
61345;BME280;47216;42.656;23.232;2023-04-05T08:53:46;93587.75;;;2.16;64.71
61345;BME280;47216;42.656;23.232;2023-04-05T08:56:14;93582.59;;;2.22;64.81
61345;BME280;47216;42.656;23.232;2023-04-05T08:58:47;93587.31;;;2.25;63.86
61345;BME280;47216;42.656;23.232;2023-04-05T09:01:15;93587.50;;;2.24;63.71
61345;BME280;47216;42.656;23.232;2023-04-05T09:03:42;93591.44;;;2.33;63.67
61345;BME280;47216;42.656;23.232;2023-04-05T09:06:11;93590.47;;;2.27;62.88
61345;BME280;47216;42.656;23.232;2023-04-05T09:08:40;93591.66;;;2.31;62.75
61345;BME280;47216;42.656;23.232;2023-04-05T09:11:07;93594.78;;;2.40;62.71
61345;BME280;47216;42.656;23.232;2023-04-05T09:13:33;93594.97;;;2.52;62.74
61345;BME280;47216;42.656;23.232;2023-04-05T09:16:00;93592.00;;;2.48;63.30
61345;BME280;47216;42.656;23.232;2023-04-05T09:18:27;93593.00;;;2.47;62.94
61345;BME280;47216;42.656;23.232;2023-04-05T09:21:01;93601.88;;;2.51;63.12
61345;BME280;47216;42.656;23.232;2023-04-05T09:23:29;93595.34;;;2.56;62.27
61345;BME280;47216;42.656;23.232;2023-04-05T09:25:57;93589.97;;;2.64;62.13
61345;BME280;47216;42.656;23.232;2023-04-05T09:28:39;93584.44;;;2.60;62.90
61345;BME280;47216;42.656;23.232;2023-04-05T09:31:06;93594.75;;;2.53;61.63
61345;BME280;47216;42.656;23.232;2023-04-05T09:33:33;93591.59;;;2.45;61.09
61345;BME280;47216;42.656;23.232;2023-04-05T09:36:01;93584.09;;;2.50;62.44
61345;BME280;47216;42.656;23.232;2023-04-05T09:38:41;93579.44;;;2.65;63.25
61345;BME280;47216;42.656;23.232;2023-04-05T09:41:10;93584.34;;;2.80;62.63
61345;BME280;47216;42.656;23.232;2023-04-05T09:43:38;93590.72;;;2.71;60.73
61345;BME280;47216;42.656;23.232;2023-04-05T09:46:05;93580.75;;;2.81;60.74
61345;BME280;47216;42.656;23.232;2023-04-05T09:48:47;93581.78;;;2.80;60.78
61345;BME280;47216;42.656;23.232;2023-04-05T09:51:14;93593.88;;;2.73;61.43
61345;BME280;47216;42.656;23.232;2023-04-05T09:53:55;93587.50;;;2.82;61.39
61345;BME280;47216;42.656;23.232;2023-04-05T09:56:24;93589.50;;;2.80;60.39
61345;BME280;47216;42.656;23.232;2023-04-05T09:58:51;93586.75;;;2.75;60.09
61345;BME280;47216;42.656;23.232;2023-04-05T10:01:19;93583.00;;;2.71;61.15
61345;BME280;47216;42.656;23.232;2023-04-05T10:03:46;93588.53;;;2.68;61.44
61345;BME280;47216;42.656;23.232;2023-04-05T10:06:14;93592.94;;;2.54;61.02
61345;BME280;47216;42.656;23.232;2023-04-05T10:08:42;93578.91;;;2.57;61.56
61345;BME280;47216;42.656;23.232;2023-04-05T10:11:09;93586.03;;;2.55;62.75
61345;BME280;47216;42.656;23.232;2023-04-05T10:13:39;93581.25;;;2.58;62.22
61345;BME280;47216;42.656;23.232;2023-04-05T10:16:10;93573.56;;;2.51;62.03
61345;BME280;47216;42.656;23.232;2023-04-05T10:18:42;93578.19;;;2.43;62.49
61345;BME280;47216;42.656;23.232;2023-04-05T10:21:14;93572.78;;;2.51;63.29
61345;BME280;47216;42.656;23.232;2023-04-05T10:23:45;93582.50;;;2.49;63.06
61345;BME280;47216;42.656;23.232;2023-04-05T10:26:17;93580.19;;;2.34;63.06
61345;BME280;47216;42.656;23.232;2023-04-05T10:28:51;93581.16;;;2.33;63.99
61345;BME280;47216;42.656;23.232;2023-04-05T10:31:23;93574.78;;;2.42;63.61
61345;BME280;47216;42.656;23.232;2023-04-05T10:33:54;93575.75;;;2.55;63.92
61345;BME280;47216;42.656;23.232;2023-04-05T10:36:31;93576.34;;;2.57;63.18
61345;BME280;47216;42.656;23.232;2023-04-05T10:39:03;93581.25;;;2.65;63.71
61345;BME280;47216;42.656;23.232;2023-04-05T10:41:35;93581.66;;;2.62;62.72
61345;BME280;47216;42.656;23.232;2023-04-05T10:44:04;93584.50;;;2.40;63.48
61345;BME280;47216;42.656;23.232;2023-04-05T10:46:35;93573.84;;;2.30;64.43
61345;BME280;47216;42.656;23.232;2023-04-05T10:49:18;93586.50;;;2.38;64.62
61345;BME280;47216;42.656;23.232;2023-04-05T10:51:47;93586.88;;;2.42;64.67
61345;BME280;47216;42.656;23.232;2023-04-05T10:54:15;93588.66;;;2.41;64.37
61345;BME280;47216;42.656;23.232;2023-04-05T10:56:43;93586.09;;;2.41;64.24
61345;BME280;47216;42.656;23.232;2023-04-05T10:59:12;93591.66;;;2.31;63.69
61345;BME280;47216;42.656;23.232;2023-04-05T11:01:40;93595.38;;;2.36;64.26
61345;BME280;47216;42.656;23.232;2023-04-05T11:04:11;93595.19;;;2.37;64.78
61345;BME280;47216;42.656;23.232;2023-04-05T11:06:39;93599.72;;;2.48;64.53
61345;BME280;47216;42.656;23.232;2023-04-05T11:09:10;93591.19;;;2.55;63.26
61345;BME280;47216;42.656;23.232;2023-04-05T11:11:40;93600.66;;;2.61;63.28
61345;BME280;47216;42.656;23.232;2023-04-05T11:14:21;93602.28;;;2.48;62.87
61345;BME280;47216;42.656;23.232;2023-04-05T11:16:51;93607.44;;;2.48;63.59
61345;BME280;47216;42.656;23.232;2023-04-05T11:19:49;93599.88;;;2.53;63.04
61345;BME280;47216;42.656;23.232;2023-04-05T11:22:26;93610.19;;;2.53;63.17
61345;BME280;47216;42.656;23.232;2023-04-05T11:24:55;93606.09;;;2.39;63.58
61345;BME280;47216;42.656;23.232;2023-04-05T11:27:26;93600.34;;;2.37;64.24
61345;BME280;47216;42.656;23.232;2023-04-05T11:29:55;93600.75;;;2.41;63.83
61345;BME280;47216;42.656;23.232;2023-04-05T11:32:23;93604.69;;;2.43;64.09
61345;BME280;47216;42.656;23.232;2023-04-05T11:35:05;93595.16;;;2.50;63.98
61345;BME280;47216;42.656;23.232;2023-04-05T11:37:54;93607.78;;;2.59;62.98
61345;BME280;47216;42.656;23.232;2023-04-05T11:40:26;93612.94;;;2.59;62.74
61345;BME280;47216;42.656;23.232;2023-04-05T11:42:58;93612.94;;;2.59;63.45
61345;BME280;47216;42.656;23.232;2023-04-05T11:45:28;93602.63;;;2.65;64.19
61345;BME280;47216;42.656;23.232;2023-04-05T11:47:56;93600.25;;;2.70;63.51
61345;BME280;47216;42.656;23.232;2023-04-05T11:50:22;93605.81;;;2.61;63.37
61345;BME280;47216;42.656;23.232;2023-04-05T11:53:10;93595.47;;;2.74;64.31
61345;BME280;47216;42.656;23.232;2023-04-05T11:55:38;93599.41;;;2.77;63.52
61345;BME280;47216;42.656;23.232;2023-04-05T11:58:14;93602.19;;;2.75;63.04
61345;BME280;47216;42.656;23.232;2023-04-05T12:00:44;93599.03;;;2.73;63.79
61345;BME280;47216;42.656;23.232;2023-04-05T12:03:12;93599.75;;;2.87;63.63
61345;BME280;47216;42.656;23.232;2023-04-05T12:05:49;93593.81;;;2.86;63.54
61345;BME280;47216;42.656;23.232;2023-04-05T12:08:16;93597.06;;;2.75;63.79
61345;BME280;47216;42.656;23.232;2023-04-05T12:10:43;93589.88;;;2.77;64.19
61345;BME280;47216;42.656;23.232;2023-04-05T12:13:10;93585.16;;;2.74;64.10
61345;BME280;47216;42.656;23.232;2023-04-05T12:15:38;93600.19;;;2.77;63.64
61345;BME280;47216;42.656;23.232;2023-04-05T12:18:13;93598.66;;;2.69;64.25
61345;BME280;47216;42.656;23.232;2023-04-05T12:20:40;93595.03;;;2.77;65.05
61345;BME280;47216;42.656;23.232;2023-04-05T12:23:08;93595.09;;;2.70;64.32
61345;BME280;47216;42.656;23.232;2023-04-05T12:25:36;93604.59;;;2.63;65.45
61345;BME280;47216;42.656;23.232;2023-04-05T12:28:04;93593.47;;;2.76;64.49
61345;BME280;47216;42.656;23.232;2023-04-05T12:30:33;93601.63;;;2.73;64.38
61345;BME280;47216;42.656;23.232;2023-04-05T12:33:08;93608.56;;;2.66;65.01
61345;BME280;47216;42.656;23.232;2023-04-05T12:35:37;93600.78;;;2.79;64.73
61345;BME280;47216;42.656;23.232;2023-04-05T12:38:06;93595.59;;;2.86;64.39
61345;BME280;47216;42.656;23.232;2023-04-05T12:40:35;93594.34;;;2.95;64.60
61345;BME280;47216;42.656;23.232;2023-04-05T12:43:03;93597.97;;;2.87;64.48
61345;BME280;47216;42.656;23.232;2023-04-05T12:45:31;93601.41;;;3.13;64.49
61345;BME280;47216;42.656;23.232;2023-04-05T12:48:07;93602.00;;;3.15;63.02
61345;BME280;47216;42.656;23.232;2023-04-05T12:50:34;93597.91;;;3.01;63.22
61345;BME280;47216;42.656;23.232;2023-04-05T12:53:04;93604.47;;;2.97;63.13
61345;BME280;47216;42.656;23.232;2023-04-05T12:55:32;93610.69;;;3.14;63.36
61345;BME280;47216;42.656;23.232;2023-04-05T12:58:04;93601.63;;;3.05;63.83
61345;BME280;47216;42.656;23.232;2023-04-05T13:00:31;93594.09;;;3.10;63.15
61345;BME280;47216;42.656;23.232;2023-04-05T13:02:58;93608.56;;;3.04;64.33
61345;BME280;47216;42.656;23.232;2023-04-05T13:05:26;93600.56;;;2.81;64.12
61345;BME280;47216;42.656;23.232;2023-04-05T13:07:53;93598.44;;;2.71;65.61
61345;BME280;47216;42.656;23.232;2023-04-05T13:10:23;93615.06;;;2.75;64.89